createdAt,value
2023-01-15T00:03:10.814Z,10.7
2023-01-15T00:09:00.035Z,11.9
2023-01-15T00:14:05.601Z,11.9
2023-01-15T00:19:51.675Z,15.6
2023-01-15T00:25:26.477Z,15.6
2023-01-15T00:30:55.288Z,16.8
2023-01-15T00:36:33.217Z,16.8
2023-01-15T00:42:25.608Z,19.2
2023-01-15T00:47:51.684Z,18
2023-01-15T00:53:25.651Z,16.8
2023-01-15T00:58:52.935Z,15.6
2023-01-15T01:04:41.891Z,14.4
2023-01-15T01:09:59.343Z,18
2023-01-15T01:15:30.792Z,15.6
2023-01-15T01:21:20.079Z,13.2
2023-01-15T01:27:06.050Z,14.4
2023-01-15T01:32:19.247Z,13.2
2023-01-15T01:37:55.265Z,13.2
2023-01-15T01:43:38.603Z,11.9
2023-01-15T01:49:17.468Z,14.4
2023-01-15T01:54:53.064Z,15.6
2023-01-15T02:00:21.032Z,11.9
2023-01-15T02:06:11.441Z,14.4
2023-01-15T02:11:47.717Z,15.6
2023-01-15T02:17:22.360Z,16.8
2023-01-15T02:22:36.540Z,14.4
2023-01-15T02:28:27.101Z,13.2
2023-01-15T02:33:47.958Z,10.7
2023-01-15T02:39:17.695Z,13.2
2023-01-15T02:44:48.131Z,9.6
2023-01-15T02:50:25.491Z,11.9
2023-01-15T02:56:13.899Z,10.7
2023-01-15T03:01:40.643Z,10.7
2023-01-15T03:07:25.282Z,11.9
2023-01-15T03:18:29.727Z,11.9
2023-01-15T03:24:06.665Z,14.4
2023-01-15T03:46:22.213Z,15.6
2023-01-15T04:42:16.919Z,10.7
2023-01-15T04:53:43.694Z,13.2
2023-01-15T04:59:03.679Z,13.2
2023-01-15T05:05:04.049Z,8.4
2023-01-15T05:10:38.468Z,13.2
2023-01-15T05:15:59.807Z,13.2
2023-01-15T05:21:45.224Z,11.9
2023-01-15T05:27:13.021Z,14.4
2023-01-15T05:32:51.354Z,13.2
2023-01-15T05:38:36.077Z,14.4
2023-01-15T05:43:59.628Z,15.6
2023-01-15T05:49:42.696Z,14.4
2023-01-15T05:55:12.333Z,14.4
2023-01-15T06:00:56.607Z,14.4
2023-01-15T06:06:28.087Z,15.6
2023-01-15T06:11:54.211Z,13.2
2023-01-15T06:17:21.630Z,14.4
2023-01-15T06:22:54.959Z,15.6
2023-01-15T06:28:49.441Z,14.4
2023-01-15T06:34:22.359Z,14.4
2023-01-15T06:39:47.372Z,14.4
2023-01-15T06:45:22.213Z,11.9
2023-01-15T06:51:14.704Z,14.4
2023-01-15T06:56:36.647Z,14.4
2023-01-15T07:02:04.789Z,14.4
2023-01-15T07:07:53.491Z,14.4
2023-01-15T07:13:31.212Z,13.2
2023-01-15T07:18:52.232Z,11.9
2023-01-15T07:24:42.700Z,11.9
2023-01-15T07:30:22.736Z,14.4
2023-01-15T07:35:29.111Z,11.9
2023-01-15T07:41:13.981Z,10.7
2023-01-15T07:46:46.500Z,9.6
2023-01-15T07:52:35.131Z,9.6
2023-01-15T07:58:06.509Z,9.6
2023-01-15T08:03:27.386Z,10.7
2023-01-15T08:09:24.059Z,11.9
2023-01-15T08:14:53.481Z,9.6
2023-01-15T08:20:18.605Z,15.6
2023-01-15T08:25:53.793Z,18
2023-01-15T08:31:41.362Z,14.4
2023-01-15T08:42:37.888Z,18
2023-01-15T08:48:24.972Z,14.4
2023-01-15T08:59:38.703Z,21.5
2023-01-15T09:05:00.840Z,21.5
2023-01-15T09:10:37.292Z,23.9
2023-01-15T09:16:27.767Z,27.6
2023-01-15T09:22:04.034Z,27.6
2023-01-15T09:27:14.361Z,21.5
2023-01-15T09:33:03.025Z,18
2023-01-15T09:38:21.714Z,10.7
2023-01-15T09:44:20.804Z,9.6
2023-01-15T09:49:32.950Z,5.9
2023-01-15T09:55:08.248Z,9.6
2023-01-15T10:00:56.943Z,8.4
2023-01-15T10:06:18.067Z,15.6
2023-01-15T10:12:00.987Z,10.7
2023-01-15T10:17:22.097Z,10.7
2023-01-15T10:23:24.897Z,8.4
2023-01-15T10:28:46.892Z,9.6
2023-01-15T10:34:04.894Z,9.6
2023-01-15T10:39:48.120Z,11.9
2023-01-15T10:45:34.315Z,7.2
2023-01-15T10:51:09.437Z,8.4
2023-01-15T10:56:33.202Z,9.6
2023-01-15T11:02:00.880Z,7.2
2023-01-15T11:07:36.251Z,7.2
2023-01-15T11:13:19.185Z,9.6
2023-01-15T11:18:55.863Z,9.6
2023-01-15T11:24:32.627Z,9.6
2023-01-15T11:29:51.153Z,8.4
2023-01-15T11:35:40.798Z,11.9
2023-01-15T11:40:59.731Z,10.7
2023-01-15T11:46:37.180Z,11.9
2023-01-15T11:52:08.665Z,11.9
2023-01-15T11:57:51.179Z,9.6
2023-01-15T12:03:46.192Z,11.9
2023-01-15T12:08:54.134Z,11.9
2023-01-15T12:14:38.230Z,10.7
2023-01-15T12:20:06.086Z,13.2
2023-01-15T12:26:02.861Z,10.7
2023-01-15T12:31:17.822Z,11.9
2023-01-15T12:36:58.438Z,10.7
2023-01-15T12:42:35.671Z,5.9
2023-01-15T12:48:22.417Z,9.6
2023-01-15T12:53:33.656Z,8.4
2023-01-15T12:59:03.393Z,10.7
2023-01-15T13:05:02.351Z,10.7
2023-01-15T13:10:21.904Z,9.6
2023-01-15T13:15:53.373Z,8.4
2023-01-15T13:21:42.563Z,7.2
2023-01-15T13:27:02.370Z,7.2
2023-01-15T13:32:54.434Z,7.2
2023-01-15T13:38:05.003Z,7.2
2023-01-15T13:44:03.503Z,7.2
2023-01-15T13:49:17.931Z,7.2
2023-01-15T13:54:56.250Z,4.8
2023-01-15T14:00:25.898Z,7.2
2023-01-15T14:06:07.452Z,8.4
2023-01-15T14:11:37.215Z,7.2
2023-01-15T14:17:32.106Z,8.4
2023-01-15T14:23:05.351Z,7.2
2023-01-15T14:28:42.332Z,8.4
2023-01-15T14:33:50.112Z,7.2
2023-01-15T14:39:42.577Z,5.9
2023-01-15T14:45:08.685Z,8.4
2023-01-15T14:50:45.475Z,7.2
2023-01-15T14:56:07.849Z,5.9
2023-01-15T15:01:55.065Z,5.9
2023-01-15T15:07:43.047Z,7.2
2023-01-15T15:12:52.835Z,4.8
2023-01-15T15:18:48.585Z,5.9
2023-01-15T15:24:04.845Z,8.4
2023-01-15T15:29:41.751Z,7.2
2023-01-15T15:35:20.061Z,7.2
2023-01-15T15:41:04.348Z,7.2
2023-01-15T15:46:18.737Z,5.9
2023-01-15T15:52:20.448Z,5.9
2023-01-15T15:57:26.340Z,5.9
2023-01-15T16:03:13.695Z,5.9
2023-01-15T16:08:55.203Z,7.2
2023-01-15T16:14:30.335Z,4.8
2023-01-15T16:19:45.930Z,7.2
2023-01-15T16:31:18.852Z,9.6
2023-01-15T16:36:42.558Z,8.4
2023-01-15T16:42:33.253Z,7.2
2023-01-15T16:47:43.815Z,5.9
2023-01-15T16:53:36.827Z,5.9
2023-01-15T16:58:53.606Z,5.9
2023-01-15T17:04:34.831Z,4.8
2023-01-15T17:10:17.024Z,5.9
2023-01-15T17:15:46.601Z,4.8
2023-01-15T17:21:31.698Z,4.8
2023-01-15T17:26:51.416Z,5.9
2023-01-15T17:32:19.437Z,8.4
2023-01-15T17:37:49.349Z,8.4
2023-01-15T17:43:52.067Z,8.4
2023-01-15T17:49:26.064Z,5.9
2023-01-15T17:54:35.606Z,5.9
2023-01-15T18:00:34.200Z,7.2
2023-01-15T18:05:58.186Z,3.6
2023-01-15T18:11:25.230Z,3.6
2023-01-15T18:17:01.891Z,3.6
2023-01-15T18:22:47.484Z,0
2023-01-15T18:28:12.813Z,3.6
2023-01-15T18:33:56.288Z,2.4
2023-01-15T18:39:28.231Z,0
2023-01-15T18:44:48.796Z,0
2023-01-15T18:50:31.046Z,3.6
2023-01-15T18:56:04.335Z,3.6
2023-01-15T19:01:26.980Z,2.4
2023-01-15T19:07:10.838Z,4.8
2023-01-15T19:12:34.429Z,3.6
2023-01-15T19:18:12.469Z,3.6
2023-01-15T19:23:41.696Z,4.8
2023-01-15T19:29:08.991Z,2.4
2023-01-15T19:35:06.322Z,4.8
2023-01-15T19:40:18.249Z,2.4
2023-01-15T19:45:56.548Z,3.6
2023-01-15T19:51:23.999Z,5.9
2023-01-15T19:57:10.804Z,3.6
2023-01-15T20:02:53.251Z,3.6
2023-01-15T20:08:07.425Z,3.6
2023-01-15T20:13:51.479Z,2.4
2023-01-15T20:19:21.215Z,3.6
2023-01-15T20:24:55.873Z,4.8
2023-01-15T20:30:33.092Z,4.8
2023-01-15T20:35:52.651Z,2.4
2023-01-15T20:41:26.061Z,3.6
2023-01-15T20:47:07.823Z,0
2023-01-15T20:52:34.099Z,3.6
2023-01-15T20:58:18.554Z,3.6
2023-01-15T21:04:05.634Z,3.6
2023-01-15T21:09:12.086Z,3.6
2023-01-15T21:14:51.269Z,4.8
2023-01-15T21:20:39.734Z,4.8
2023-01-15T21:25:53.881Z,4.8
2023-01-15T21:31:54.284Z,3.6
2023-01-15T21:37:28.021Z,3.6
2023-01-15T21:42:40.190Z,4.8
2023-01-15T21:48:24.606Z,4.8
2023-01-15T21:53:54.996Z,3.6
2023-01-15T21:59:35.951Z,3.6
2023-01-15T22:05:06.243Z,4.8
2023-01-15T22:10:34.236Z,3.6
2023-01-15T22:16:28.254Z,4.8
2023-01-15T22:27:12.301Z,3.6
2023-01-15T22:33:09.432Z,3.6
2023-01-15T22:38:35.846Z,3.6
2023-01-15T22:43:53.418Z,0
2023-01-15T22:49:28.569Z,3.6
2023-01-15T22:55:21.439Z,3.6
2023-01-15T23:00:45.281Z,3.6
2023-01-15T23:06:31.945Z,0
2023-01-15T23:11:43.585Z,2.4
2023-01-15T23:17:23.568Z,4.8
2023-01-15T23:22:49.414Z,3.6
2023-01-15T23:28:41.788Z,4.8
2023-01-15T23:34:13.208Z,7.2
2023-01-15T23:39:39.570Z,7.2
2023-01-15T23:45:11.470Z,8.4
2023-01-15T23:50:35.972Z,9.6
2023-01-15T23:56:38.055Z,5.9
